createdAt,value
2022-11-13T00:00:48.719Z,24.77
2022-11-13T00:06:01.110Z,27.07
2022-11-13T00:11:05.823Z,27.93
2022-11-13T00:16:11.645Z,27.10
2022-11-13T00:21:17.380Z,25.93
2022-11-13T00:26:21.691Z,27.20
2022-11-13T00:31:24.619Z,26.80
2022-11-13T00:36:29.735Z,24.00
2022-11-13T00:41:32.491Z,26.73
2022-11-13T00:46:35.293Z,23.93
2022-11-13T00:51:39.361Z,21.50
2022-11-13T00:56:42.119Z,23.10
2022-11-13T01:01:44.956Z,23.93
2022-11-13T01:06:49.137Z,19.33
2022-11-13T01:11:51.909Z,21.13
2022-11-13T01:16:54.661Z,20.10
2022-11-13T01:21:58.801Z,19.57
2022-11-13T01:27:01.521Z,18.43
2022-11-13T01:32:04.441Z,18.00
2022-11-13T01:37:08.511Z,19.23
2022-11-13T01:42:11.255Z,20.43
2022-11-13T01:47:14.027Z,25.20
2022-11-13T01:52:21.350Z,20.53
2022-11-13T01:57:24.315Z,20.47
2022-11-13T02:02:31.017Z,20.23
2022-11-13T02:07:35.185Z,20.10
2022-11-13T02:12:41.724Z,20.60
2022-11-13T02:17:48.061Z,21.07
2022-11-13T02:22:56.460Z,17.60
2022-11-13T02:28:00.669Z,18.03
2022-11-13T02:33:03.586Z,18.37
2022-11-13T02:38:07.066Z,18.53
2022-11-13T02:43:11.250Z,17.70
2022-11-13T02:48:14.062Z,18.13
2022-11-13T02:53:17.137Z,17.07
2022-11-13T02:58:22.533Z,17.57
2022-11-13T03:03:55.925Z,16.80
2022-11-13T03:08:48.134Z,17.43
2022-11-13T03:13:52.165Z,16.40
2022-11-13T03:18:56.371Z,17.67
2022-11-13T03:23:59.288Z,18.47
2022-11-13T03:29:03.719Z,19.40
2022-11-13T03:34:06.542Z,20.00
2022-11-13T03:39:09.344Z,18.63
2022-11-13T03:44:13.402Z,18.77
2022-11-13T03:49:16.145Z,19.53
2022-11-13T03:54:19.018Z,17.03
2022-11-13T03:59:23.131Z,20.80
2022-11-13T04:04:25.872Z,20.53
2022-11-13T04:09:28.651Z,23.60
2022-11-13T04:14:32.780Z,18.87
2022-11-13T04:19:35.599Z,18.87
2022-11-13T04:24:38.386Z,22.17
2022-11-13T04:29:42.488Z,21.47
2022-11-13T04:34:45.211Z,17.80
2022-11-13T04:39:47.962Z,20.20
2022-11-13T04:44:52.030Z,18.63
2022-11-13T04:49:54.770Z,20.23
2022-11-13T04:54:57.677Z,19.10
2022-11-13T05:00:02.041Z,18.53
2022-11-13T05:05:05.662Z,15.63
2022-11-13T05:10:09.039Z,17.97
2022-11-13T05:15:13.205Z,17.77
2022-11-13T05:20:16.257Z,22.87
2022-11-13T05:25:19.027Z,21.17
2022-11-13T05:30:23.118Z,17.60
2022-11-13T05:35:25.881Z,15.73
2022-11-13T05:40:28.915Z,18.77
2022-11-13T05:45:32.971Z,17.60
2022-11-13T05:50:35.722Z,22.77
2022-11-13T05:55:38.419Z,15.00
2022-11-13T06:00:42.517Z,18.23
2022-11-13T06:05:45.282Z,17.60
2022-11-13T06:10:48.191Z,18.10
2022-11-13T06:15:52.286Z,19.30
2022-11-13T06:20:55.024Z,18.87
2022-11-13T06:26:01.915Z,18.63
2022-11-13T06:31:07.689Z,15.60
2022-11-13T06:36:12.923Z,18.07
2022-11-13T06:41:17.471Z,16.23
2022-11-13T06:46:23.778Z,19.73
2022-11-13T06:51:28.251Z,18.67
2022-11-13T06:56:31.025Z,20.97
2022-11-13T07:01:35.099Z,17.93
2022-11-13T07:06:40.507Z,22.20
2022-11-13T07:11:43.424Z,20.33
2022-11-13T07:17:08.097Z,17.53
2022-11-13T07:22:10.264Z,12.57
2022-11-13T07:27:13.009Z,11.70
2022-11-13T07:32:17.138Z,11.57
2022-11-13T07:37:20.322Z,9.37
2022-11-13T07:42:23.025Z,9.70
2022-11-13T07:47:27.146Z,7.97
2022-11-13T07:52:29.866Z,9.87
2022-11-13T07:57:32.617Z,9.48
2022-11-13T08:02:36.759Z,7.07
2022-11-13T08:07:39.518Z,13.02
2022-11-13T08:12:42.297Z,8.45
2022-11-13T08:17:46.377Z,9.65
2022-11-13T08:22:49.126Z,8.25
2022-11-13T08:27:53.897Z,7.25
2022-11-13T08:32:57.981Z,9.00
2022-11-13T08:38:03.483Z,7.18
2022-11-13T08:43:06.430Z,6.38
2022-11-13T08:48:10.469Z,7.43
2022-11-13T08:53:13.222Z,7.15
2022-11-13T08:58:16.373Z,7.80
2022-11-13T09:03:20.477Z,6.63
2022-11-13T09:08:23.233Z,7.88
2022-11-13T09:13:25.966Z,8.98
2022-11-13T09:18:30.798Z,9.32
2022-11-13T09:23:34.554Z,8.15
2022-11-13T09:28:37.654Z,8.38
2022-11-13T09:33:41.760Z,8.68
2022-11-13T09:38:44.631Z,8.85
2022-11-13T09:43:53.026Z,6.93
2022-11-13T09:49:04.809Z,10.95
2022-11-13T09:54:14.946Z,5.75
2022-11-13T09:59:25.850Z,6.43
2022-11-13T10:04:41.828Z,7.00
2022-11-13T10:09:59.009Z,7.65
2022-11-13T10:15:04.321Z,6.22
2022-11-13T10:20:15.253Z,7.78
2022-11-13T10:25:20.534Z,5.38
2022-11-13T10:30:23.593Z,5.35
2022-11-13T10:35:47.910Z,7.07
2022-11-13T10:40:51.050Z,7.20
2022-11-13T10:45:58.013Z,6.38
2022-11-13T10:51:05.149Z,7.85
2022-11-13T10:56:25.983Z,9.82
2022-11-13T11:01:29.098Z,7.90
2022-11-13T11:12:18.902Z,9.38
2022-11-13T11:17:25.266Z,7.88
2022-11-13T11:22:34.067Z,8.77
2022-11-13T11:27:42.143Z,8.68
2022-11-13T11:32:52.019Z,8.18
2022-11-13T11:38:02.268Z,8.25
2022-11-13T11:43:13.612Z,9.68
2022-11-13T11:48:18.702Z,9.43
2022-11-13T11:53:38.107Z,10.38
2022-11-13T11:59:03.943Z,11.27
2022-11-13T12:04:24.225Z,14.20
2022-11-13T12:09:31.398Z,13.07
2022-11-13T12:14:42.276Z,14.90
2022-11-13T12:19:54.576Z,12.25
2022-11-13T12:25:13.498Z,11.48
2022-11-13T12:30:19.845Z,14.02
2022-11-13T12:35:25.253Z,13.57
2022-11-13T12:40:41.243Z,10.95
2022-11-13T12:45:52.991Z,13.05
2022-11-13T12:51:00.563Z,15.35
2022-11-13T12:56:05.206Z,16.90
2022-11-13T13:01:19.435Z,13.70
2022-11-13T13:06:40.769Z,15.95
2022-11-13T13:11:54.894Z,15.23
2022-11-13T13:17:07.163Z,13.90
2022-11-13T13:22:11.382Z,15.93
2022-11-13T13:27:24.903Z,15.80
2022-11-13T13:32:34.753Z,15.75
2022-11-13T13:37:48.221Z,15.98
2022-11-13T13:43:07.661Z,16.02
2022-11-13T13:48:12.607Z,17.80
2022-11-13T13:53:19.668Z,21.17
2022-11-13T13:58:32.367Z,21.40
2022-11-13T14:03:35.243Z,22.17
2022-11-13T14:08:38.013Z,23.87
2022-11-13T14:13:42.081Z,22.37
2022-11-13T14:18:44.974Z,24.63
2022-11-13T14:23:51.313Z,21.10
2022-11-13T14:28:57.068Z,25.73
2022-11-13T14:34:03.069Z,24.53
2022-11-13T14:39:06.093Z,25.33
2022-11-13T14:44:12.427Z,24.87
2022-11-13T15:28:44.969Z,30.30
2022-11-13T15:33:48.637Z,32.63
2022-11-13T15:38:51.408Z,34.20
2022-11-13T15:43:56.762Z,34.33
2022-11-13T15:48:59.517Z,34.13
2022-11-13T15:54:06.125Z,33.10
2022-11-13T15:59:12.797Z,32.93
2022-11-13T16:04:16.405Z,38.97
2022-11-13T16:09:19.153Z,39.00
2022-11-13T16:14:25.028Z,33.20
2022-11-13T16:19:28.067Z,43.43
2022-11-13T16:24:30.805Z,38.67
2022-11-13T16:29:34.852Z,39.07
2022-11-13T16:34:42.212Z,39.50
2022-11-13T16:39:45.787Z,43.00
2022-11-13T16:44:49.861Z,43.43
2022-11-13T16:49:52.982Z,44.43
2022-11-13T16:54:55.808Z,49.60
2022-11-13T16:59:59.861Z,43.70
2022-11-13T17:05:02.674Z,47.10
2022-11-13T17:15:30.165Z,46.23
2022-11-13T17:20:32.908Z,53.37
2022-11-13T17:25:35.739Z,53.30
2022-11-13T17:30:39.850Z,50.43
2022-11-13T17:35:42.597Z,53.77
2022-11-13T17:40:45.364Z,49.10
2022-11-13T17:45:52.036Z,44.97
2022-11-13T17:50:58.567Z,46.80
2022-11-13T17:56:06.453Z,44.73
2022-11-13T18:01:14.108Z,46.23
2022-11-13T18:06:20.003Z,48.30
2022-11-13T18:11:25.464Z,43.40
2022-11-13T18:16:33.831Z,44.77
2022-11-13T18:21:37.556Z,48.43
2022-11-13T18:26:40.533Z,45.73
2022-11-13T18:31:45.039Z,46.03
2022-11-13T18:36:47.771Z,51.50
2022-11-13T18:41:50.703Z,47.47
2022-11-13T18:46:55.298Z,43.63
2022-11-13T18:51:58.029Z,42.57
2022-11-13T18:57:00.770Z,42.87
2022-11-13T19:02:05.000Z,46.00
2022-11-13T19:07:08.706Z,41.20
2022-11-13T19:12:11.519Z,46.80
2022-11-13T19:17:15.701Z,43.27
2022-11-13T19:22:18.441Z,41.87
2022-11-13T19:27:21.501Z,41.13
2022-11-13T19:32:25.641Z,44.70
2022-11-13T19:37:28.458Z,41.47
2022-11-13T19:42:31.287Z,46.53
2022-11-13T19:47:35.380Z,44.93
2022-11-13T19:52:38.134Z,46.43
2022-11-13T19:57:46.029Z,47.33
2022-11-13T20:02:50.527Z,43.80
2022-11-13T20:07:58.266Z,43.33
2022-11-13T20:13:01.097Z,42.13
2022-11-13T20:18:05.660Z,46.47
2022-11-13T20:23:08.419Z,46.20
2022-11-13T20:28:11.195Z,45.33
2022-11-13T20:33:21.262Z,41.97
2022-11-13T20:38:25.264Z,43.17
2022-11-13T20:43:28.014Z,42.63
2022-11-13T20:48:32.533Z,41.63
2022-11-13T20:53:35.736Z,40.17
2022-11-13T20:58:38.976Z,39.27
2022-11-13T21:03:44.598Z,39.43
2022-11-13T21:08:48.344Z,38.47
2022-11-13T21:13:51.226Z,38.70
2022-11-13T21:18:56.237Z,40.00
2022-11-13T21:23:59.892Z,39.47
2022-11-13T21:29:03.253Z,37.73
2022-11-13T21:34:08.099Z,38.87
2022-11-13T21:45:25.562Z,36.43
2022-11-13T21:50:32.134Z,35.07
2022-11-13T21:55:37.502Z,36.17
2022-11-13T22:00:41.384Z,33.27
2022-11-13T22:05:52.722Z,34.20
2022-11-13T22:10:55.711Z,34.00
2022-11-13T22:15:58.950Z,32.53
2022-11-13T22:21:04.857Z,33.57
2022-11-13T22:26:12.040Z,38.37
2022-11-13T22:31:21.519Z,31.17
2022-11-13T22:36:31.303Z,31.50
2022-11-13T22:41:37.548Z,34.83
2022-11-13T22:46:43.588Z,33.43
2022-11-13T22:51:48.781Z,34.63
2022-11-13T22:56:54.683Z,36.10
2022-11-13T23:01:57.587Z,29.17
2022-11-13T23:07:02.124Z,31.00
2022-11-13T23:12:06.373Z,32.90
2022-11-13T23:17:11.778Z,33.10
2022-11-13T23:22:15.971Z,30.20
2022-11-13T23:27:18.716Z,29.13
2022-11-13T23:32:21.494Z,26.13
2022-11-13T23:37:25.582Z,30.43
2022-11-13T23:42:53.396Z,30.33
2022-11-13T23:47:51.056Z,28.20
2022-11-13T23:52:55.561Z,26.93
2022-11-13T23:57:59.393Z,28.60
